createdAt,value
2019-05-30T00:02:11.998Z,9.40
2019-05-30T00:04:42.507Z,9.40
2019-05-30T00:07:14.915Z,9.30
2019-05-30T00:09:45.422Z,9.30
2019-05-30T00:12:15.969Z,9.30
2019-05-30T00:14:46.721Z,9.20
2019-05-30T00:17:17.330Z,9.10
2019-05-30T00:19:48.035Z,9.00
2019-05-30T00:22:18.534Z,9.00
2019-05-30T00:24:49.139Z,8.90
2019-05-30T00:27:19.559Z,8.80
2019-05-30T00:29:50.152Z,8.80
2019-05-30T00:32:20.734Z,8.80
2019-05-30T00:34:51.230Z,8.70
2019-05-30T00:37:22.810Z,8.60
2019-05-30T00:39:53.476Z,8.70
2019-05-30T00:42:24.069Z,8.70
2019-05-30T00:44:55.770Z,8.70
2019-05-30T00:47:26.338Z,8.70
2019-05-30T00:49:58.107Z,8.60
2019-05-30T00:52:28.760Z,8.60
2019-05-30T00:55:00.551Z,8.60
2019-05-30T00:57:31.467Z,8.60
2019-05-30T01:00:03.043Z,8.50
2019-05-30T01:02:34.332Z,8.50
2019-05-30T01:05:05.383Z,8.40
2019-05-30T01:07:36.233Z,8.30
2019-05-30T01:10:10.827Z,8.30
2019-05-30T01:12:41.957Z,8.30
2019-05-30T01:15:13.679Z,8.30
2019-05-30T01:17:44.461Z,8.20
2019-05-30T01:20:15.357Z,8.20
2019-05-30T01:22:45.817Z,8.20
2019-05-30T01:25:16.342Z,8.20
2019-05-30T01:27:46.822Z,8.20
2019-05-30T01:30:18.887Z,8.10
2019-05-30T01:32:49.286Z,8.10
2019-05-30T01:35:19.715Z,8.00
2019-05-30T01:37:50.179Z,8.00
2019-05-30T01:40:20.665Z,8.00
2019-05-30T01:42:51.100Z,8.00
2019-05-30T01:45:22.753Z,7.90
2019-05-30T01:47:53.278Z,7.90
2019-05-30T01:50:24.470Z,7.90
2019-05-30T01:52:54.877Z,7.80
2019-05-30T01:55:25.278Z,7.80
2019-05-30T01:57:55.784Z,7.80
2019-05-30T02:00:37.168Z,7.80
2019-05-30T02:03:09.530Z,7.70
2019-05-30T02:05:40.629Z,7.70
2019-05-30T02:08:11.300Z,7.60
2019-05-30T02:10:42.135Z,7.60
2019-05-30T02:13:12.587Z,7.60
2019-05-30T02:15:43.086Z,7.40
2019-05-30T02:18:13.599Z,7.40
2019-05-30T02:20:44.045Z,7.50
2019-05-30T02:23:14.669Z,7.40
2019-05-30T02:25:45.197Z,7.40
2019-05-30T02:28:15.677Z,7.30
2019-05-30T02:30:46.095Z,7.30
2019-05-30T02:33:16.513Z,7.30
2019-05-30T02:35:46.978Z,7.30
2019-05-30T02:38:17.533Z,7.30
2019-05-30T02:40:48.035Z,7.30
2019-05-30T02:43:18.562Z,7.30
2019-05-30T02:45:49.093Z,7.30
2019-05-30T02:48:19.509Z,7.30
2019-05-30T02:50:49.981Z,7.30
2019-05-30T02:53:20.421Z,7.30
2019-05-30T02:55:50.894Z,7.30
2019-05-30T02:58:27.614Z,7.30
2019-05-30T03:00:58.261Z,7.30
2019-05-30T03:03:28.673Z,7.40
2019-05-30T03:05:59.335Z,7.40
2019-05-30T03:08:29.771Z,7.50
2019-05-30T03:11:02.405Z,7.50
2019-05-30T03:13:32.923Z,7.40
2019-05-30T03:16:04.557Z,7.40
2019-05-30T03:18:36.074Z,7.40
2019-05-30T03:21:09.783Z,7.50
2019-05-30T03:23:38.850Z,7.50
2019-05-30T03:26:10.911Z,7.50
2019-05-30T03:28:41.646Z,7.50
2019-05-30T03:31:23.034Z,7.50
2019-05-30T03:33:45.393Z,7.50
2019-05-30T03:36:28.464Z,7.60
2019-05-30T03:38:50.972Z,7.60
2019-05-30T03:41:21.925Z,7.60
2019-05-30T03:43:52.882Z,7.60
2019-05-30T03:46:27.052Z,7.70
2019-05-30T03:49:00.910Z,7.70
2019-05-30T03:51:34.177Z,7.70
2019-05-30T03:54:07.680Z,7.70
2019-05-30T03:56:43.262Z,7.80
2019-05-30T03:59:35.627Z,7.80
2019-05-30T04:02:23.432Z,7.80
2019-05-30T04:05:01.606Z,7.90
2019-05-30T04:07:34.960Z,7.90
2019-05-30T04:10:09.044Z,8.00
2019-05-30T04:13:17.764Z,8.10
2019-05-30T04:15:48.586Z,8.20
2019-05-30T04:18:19.607Z,8.30
2019-05-30T04:20:50.210Z,8.40
2019-05-30T04:23:20.640Z,8.40
2019-05-30T04:25:51.063Z,8.40
2019-05-30T04:28:21.516Z,8.50
2019-05-30T04:30:52.183Z,8.50
2019-05-30T04:33:32.552Z,8.60
2019-05-30T04:35:55.128Z,8.70
2019-05-30T04:38:25.716Z,8.70
2019-05-30T04:40:57.384Z,8.80
2019-05-30T04:43:28.934Z,8.80
2019-05-30T04:45:59.826Z,8.90
2019-05-30T04:48:30.683Z,9.00
2019-05-30T04:51:01.222Z,9.10
2019-05-30T04:53:34.020Z,9.10
2019-05-30T04:56:04.700Z,9.20
2019-05-30T04:58:35.432Z,9.20
2019-05-30T05:01:06.642Z,9.30
2019-05-30T05:03:45.654Z,9.50
2019-05-30T05:06:09.270Z,9.70
2019-05-30T05:08:40.057Z,9.70
2019-05-30T05:11:14.103Z,9.80
2019-05-30T05:13:42.633Z,9.90
2019-05-30T05:16:26.134Z,9.90
2019-05-30T05:18:45.434Z,10.10
2019-05-30T05:21:16.896Z,10.10
2019-05-30T05:23:47.305Z,10.20
2019-05-30T05:26:18.024Z,10.30
2019-05-30T05:28:48.404Z,10.40
2019-05-30T05:31:19.026Z,10.40
2019-05-30T05:33:56.722Z,10.50
2019-05-30T05:36:23.085Z,10.60
2019-05-30T05:38:53.925Z,10.70
2019-05-30T05:41:24.671Z,10.80
2019-05-30T05:43:55.335Z,10.90
2019-05-30T05:46:25.774Z,11.00
2019-05-30T05:48:56.279Z,11.10
2019-05-30T05:51:26.799Z,11.10
2019-05-30T05:53:57.551Z,11.10
2019-05-30T05:56:29.153Z,11.30
2019-05-30T05:59:00.023Z,11.30
2019-05-30T06:01:30.622Z,11.30
2019-05-30T06:04:12.730Z,11.50
2019-05-30T06:06:34.383Z,11.60
2019-05-30T06:09:06.062Z,11.60
2019-05-30T06:11:36.523Z,11.60
2019-05-30T06:14:07.396Z,11.60
2019-05-30T06:16:37.879Z,11.60
2019-05-30T06:19:08.507Z,11.70
2019-05-30T06:21:52.978Z,11.80
2019-05-30T06:24:11.035Z,11.90
2019-05-30T06:26:41.496Z,12.00
2019-05-30T06:29:12.081Z,12.00
2019-05-30T06:31:42.488Z,12.10
2019-05-30T06:34:28.175Z,12.20
2019-05-30T06:36:45.269Z,12.20
2019-05-30T06:39:15.995Z,12.30
2019-05-30T06:41:46.486Z,12.20
2019-05-30T06:44:17.187Z,12.30
2019-05-30T06:46:47.664Z,12.30
2019-05-30T06:49:22.787Z,12.30
2019-05-30T06:51:53.363Z,12.40
2019-05-30T06:54:24.702Z,12.50
2019-05-30T06:56:56.100Z,12.40
2019-05-30T06:59:27.643Z,12.40
2019-05-30T07:01:58.044Z,12.50
2019-05-30T07:04:34.497Z,12.50
2019-05-30T07:07:00.761Z,12.50
2019-05-30T07:09:31.465Z,12.60
2019-05-30T07:12:01.848Z,12.70
2019-05-30T07:14:33.468Z,12.70
2019-05-30T07:17:04.154Z,12.70
2019-05-30T07:19:37.666Z,12.80
2019-05-30T07:22:07.440Z,12.80
2019-05-30T07:24:37.824Z,12.90
2019-05-30T07:27:08.296Z,13.00
2019-05-30T07:29:38.658Z,13.00
2019-05-30T07:32:09.035Z,13.10
2019-05-30T07:34:39.657Z,13.20
2019-05-30T07:37:10.045Z,13.30
2019-05-30T07:39:40.510Z,13.40
2019-05-30T07:42:10.923Z,13.30
2019-05-30T07:44:41.601Z,13.40
2019-05-30T07:47:12.119Z,13.50
2019-05-30T07:49:42.524Z,13.70
2019-05-30T07:52:12.969Z,13.80
2019-05-30T07:54:43.453Z,13.90
2019-05-30T07:57:14.005Z,13.90
2019-05-30T07:59:44.532Z,13.90
2019-05-30T08:02:14.971Z,13.90
2019-05-30T08:04:47.013Z,14.10
2019-05-30T08:07:17.602Z,14.10
2019-05-30T08:09:48.137Z,14.30
2019-05-30T08:12:18.603Z,14.40
2019-05-30T08:14:49.031Z,14.50
2019-05-30T08:17:19.473Z,14.70
2019-05-30T08:19:49.853Z,14.70
2019-05-30T08:22:20.569Z,14.80
2019-05-30T08:24:51.150Z,14.90
2019-05-30T08:27:21.661Z,14.90
2019-05-30T08:29:52.143Z,14.80
2019-05-30T08:32:22.676Z,14.90
2019-05-30T08:34:53.088Z,14.90
2019-05-30T08:37:23.510Z,14.90
2019-05-30T08:39:54.468Z,14.90
2019-05-30T08:42:27.757Z,15.00
2019-05-30T08:44:56.953Z,15.00
2019-05-30T08:47:27.543Z,15.00
2019-05-30T08:49:58.432Z,15.10
2019-05-30T08:52:30.264Z,15.40
2019-05-30T08:55:01.164Z,15.50
2019-05-30T08:57:32.355Z,15.60
2019-05-30T09:00:02.817Z,15.70
2019-05-30T09:02:33.557Z,15.80
2019-05-30T09:05:07.046Z,15.90
2019-05-30T09:07:38.118Z,15.80
2019-05-30T09:10:09.558Z,15.90
2019-05-30T09:12:43.639Z,15.90
2019-05-30T09:15:22.072Z,16.00
2019-05-30T09:17:52.735Z,16.10
2019-05-30T09:20:23.704Z,16.20
2019-05-30T09:22:54.379Z,16.20
2019-05-30T09:25:25.906Z,16.30
2019-05-30T09:27:56.767Z,16.40
2019-05-30T09:30:27.161Z,16.50
2019-05-30T09:32:57.563Z,16.50
2019-05-30T09:35:28.277Z,16.60
2019-05-30T09:37:58.871Z,16.60
2019-05-30T09:40:30.821Z,16.70
2019-05-30T09:43:01.472Z,16.70
2019-05-30T09:45:32.363Z,16.80
2019-05-30T09:48:02.772Z,16.80
2019-05-30T09:50:33.353Z,16.90
2019-05-30T09:53:03.836Z,16.90
2019-05-30T09:55:34.427Z,17.00
2019-05-30T09:58:05.170Z,16.90
2019-05-30T10:00:35.915Z,17.00
2019-05-30T10:03:06.553Z,17.10
2019-05-30T10:05:37.370Z,17.20
2019-05-30T10:08:07.788Z,17.40
2019-05-30T10:10:38.192Z,17.40
2019-05-30T10:13:08.709Z,17.40
2019-05-30T10:15:39.291Z,17.30
2019-05-30T10:18:09.804Z,17.40
2019-05-30T10:20:41.272Z,17.50
2019-05-30T10:23:11.694Z,17.60
2019-05-30T10:25:42.090Z,17.60
2019-05-30T10:28:12.518Z,17.70
2019-05-30T10:30:43.129Z,17.90
2019-05-30T10:33:13.550Z,17.70
2019-05-30T10:35:45.571Z,17.90
2019-05-30T10:38:16.024Z,18.00
2019-05-30T10:40:47.374Z,18.20
2019-05-30T10:43:18.916Z,18.30
2019-05-30T10:45:49.532Z,18.40
2019-05-30T10:48:23.655Z,18.20
2019-05-30T10:50:54.422Z,18.30
2019-05-30T10:53:25.002Z,18.40
2019-05-30T10:55:56.415Z,18.50
2019-05-30T10:58:27.259Z,18.70
2019-05-30T11:00:58.517Z,18.90
2019-05-30T11:03:29.512Z,19.00
2019-05-30T11:06:37.831Z,19.10
2019-05-30T11:09:08.587Z,19.30
2019-05-30T11:11:39.571Z,19.50
2019-05-30T11:14:10.017Z,19.80
2019-05-30T11:16:40.450Z,20.00
2019-05-30T11:19:11.079Z,19.90
2019-05-30T11:21:41.475Z,19.90
2019-05-30T11:24:12.155Z,20.10
2019-05-30T11:26:42.483Z,20.40
2019-05-30T11:29:13.403Z,20.60
2019-05-30T11:31:43.816Z,20.70
2019-05-30T11:34:14.382Z,20.90
2019-05-30T11:36:45.036Z,21.20
2019-05-30T11:39:15.763Z,21.70
2019-05-30T11:41:46.610Z,22.10
2019-05-30T11:44:17.090Z,22.50
2019-05-30T11:46:47.563Z,22.50
2019-05-30T11:49:18.252Z,22.80
2019-05-30T11:51:49.677Z,23.10
2019-05-30T11:54:20.348Z,23.30
2019-05-30T11:56:51.723Z,23.60
2019-05-30T11:59:22.604Z,23.90
2019-05-30T12:01:54.508Z,24.20
2019-05-30T12:04:25.293Z,24.60
2019-05-30T12:06:56.804Z,25.10
2019-05-30T12:09:28.538Z,25.20
2019-05-30T12:11:59.351Z,25.30
2019-05-30T12:14:29.912Z,25.70
2019-05-30T12:17:01.397Z,26.10
2019-05-30T12:19:32.085Z,26.70
2019-05-30T12:22:02.509Z,27.20
2019-05-30T12:24:33.325Z,27.60
2019-05-30T12:27:03.732Z,28.20
2019-05-30T12:29:34.254Z,28.80
2019-05-30T12:32:04.878Z,29.40
2019-05-30T12:34:35.226Z,30.20
2019-05-30T12:37:05.746Z,30.10
2019-05-30T12:39:36.267Z,30.70
2019-05-30T12:42:07.635Z,31.10
2019-05-30T12:44:38.164Z,31.50
2019-05-30T12:47:08.583Z,32.10
2019-05-30T12:49:39.129Z,31.60
2019-05-30T12:52:09.574Z,31.10
2019-05-30T12:54:40.208Z,30.90
2019-05-30T12:57:10.775Z,30.80
2019-05-30T12:59:41.288Z,30.40
2019-05-30T13:02:12.033Z,30.10
2019-05-30T13:04:42.542Z,31.20
2019-05-30T13:07:13.109Z,32.60
2019-05-30T13:09:43.536Z,33.60
2019-05-30T13:12:13.921Z,34.80
2019-05-30T13:14:44.439Z,36.20
2019-05-30T13:17:14.850Z,36.70
2019-05-30T13:19:45.434Z,38.40
2019-05-30T13:22:15.915Z,38.80
2019-05-30T13:24:46.508Z,40.50
2019-05-30T13:27:17.217Z,41.00
2019-05-30T13:29:47.694Z,41.10
2019-05-30T13:32:18.458Z,42.30
2019-05-30T13:34:48.802Z,43.80
2019-05-30T13:37:20.370Z,43.50
2019-05-30T13:39:50.764Z,43.90
2019-05-30T13:42:21.262Z,43.90
2019-05-30T13:44:52.624Z,42.40
2019-05-30T13:47:23.244Z,40.60
2019-05-30T13:49:53.736Z,39.80
2019-05-30T13:52:24.361Z,39.10
2019-05-30T13:54:54.995Z,36.70
2019-05-30T13:57:25.597Z,35.00
2019-05-30T13:59:56.703Z,34.20
2019-05-30T14:02:27.126Z,33.90
2019-05-30T14:04:57.623Z,33.80
2019-05-30T14:07:28.261Z,33.70
2019-05-30T14:10:00.155Z,34.20
2019-05-30T14:12:30.931Z,34.00
2019-05-30T14:15:03.375Z,33.60
2019-05-30T14:17:33.993Z,32.60
2019-05-30T14:20:05.086Z,31.70
2019-05-30T14:22:35.544Z,30.70
2019-05-30T14:25:07.573Z,30.30
2019-05-30T14:27:38.139Z,29.40
2019-05-30T14:30:09.252Z,29.20
2019-05-30T14:32:39.877Z,28.90
2019-05-30T14:35:11.590Z,29.30
2019-05-30T14:37:42.460Z,30.50
2019-05-30T14:40:16.018Z,32.30
2019-05-30T14:42:59.374Z,34.20
2019-05-30T14:45:29.815Z,35.80
2019-05-30T14:48:00.292Z,36.30
2019-05-30T14:50:30.791Z,37.50
2019-05-30T14:53:01.308Z,38.20
2019-05-30T14:55:31.753Z,38.50
2019-05-30T14:58:02.338Z,38.70
2019-05-30T15:03:45.572Z,39.00
2019-05-30T15:06:18.399Z,39.00
2019-05-30T15:08:48.890Z,38.70
2019-05-30T15:11:19.378Z,37.00
2019-05-30T15:13:50.036Z,34.60
2019-05-30T15:16:20.524Z,34.80
2019-05-30T15:18:50.986Z,34.70
2019-05-30T15:21:22.758Z,34.40
2019-05-30T15:23:53.185Z,34.40
2019-05-30T15:26:23.657Z,34.10
2019-05-30T15:28:54.169Z,34.40
2019-05-30T15:31:24.717Z,34.50
2019-05-30T15:33:55.199Z,34.00
2019-05-30T15:36:25.660Z,34.40
2019-05-30T15:38:56.143Z,34.80
2019-05-30T15:41:26.654Z,35.20
2019-05-30T15:44:04.795Z,34.50
2019-05-30T15:46:35.271Z,34.00
2019-05-30T15:49:06.600Z,33.00
2019-05-30T15:51:37.244Z,32.10
2019-05-30T15:54:08.777Z,31.40
2019-05-30T15:56:39.246Z,30.40
2019-05-30T15:59:11.641Z,30.20
2019-05-30T16:01:42.383Z,29.50
2019-05-30T16:04:14.100Z,29.20
2019-05-30T16:06:44.643Z,28.80
2019-05-30T16:09:16.777Z,28.40
2019-05-30T16:11:47.218Z,28.00
2019-05-30T16:14:17.662Z,27.50
2019-05-30T16:16:48.122Z,27.10
2019-05-30T16:19:24.189Z,26.90
2019-05-30T16:21:50.883Z,26.50
2019-05-30T16:24:21.470Z,26.00
2019-05-30T16:26:52.183Z,25.80
2019-05-30T16:29:22.898Z,25.70
2019-05-30T16:31:53.347Z,25.40
2019-05-30T16:34:23.866Z,25.50
2019-05-30T16:36:54.351Z,25.50
2019-05-30T16:39:26.317Z,25.40
2019-05-30T16:41:57.150Z,25.50
2019-05-30T16:44:27.617Z,25.50
2019-05-30T16:46:58.200Z,25.30
2019-05-30T16:49:28.700Z,25.20
2019-05-30T16:51:59.611Z,25.10
2019-05-30T16:54:30.319Z,24.90
2019-05-30T16:57:00.885Z,24.50
2019-05-30T16:59:31.301Z,24.40
2019-05-30T17:02:01.754Z,24.00
2019-05-30T17:04:32.227Z,23.80
2019-05-30T17:07:02.688Z,23.60
2019-05-30T17:09:33.215Z,23.40
2019-05-30T17:12:03.718Z,23.20
2019-05-30T17:14:34.147Z,23.10
2019-05-30T17:17:04.949Z,22.90
2019-05-30T17:19:38.604Z,22.80
2019-05-30T17:22:07.781Z,22.60
2019-05-30T17:24:38.465Z,22.20
2019-05-30T17:27:09.269Z,21.70
2019-05-30T17:29:40.000Z,21.60
2019-05-30T17:32:10.762Z,21.50
2019-05-30T17:34:41.340Z,21.40
2019-05-30T17:37:11.980Z,21.20
2019-05-30T17:39:42.718Z,21.00
2019-05-30T17:42:13.452Z,20.90
2019-05-30T17:44:44.297Z,20.70
2019-05-30T17:47:15.134Z,20.50
2019-05-30T17:49:46.078Z,20.30
2019-05-30T17:52:16.547Z,20.20
2019-05-30T17:54:47.072Z,20.20
2019-05-30T17:57:17.762Z,20.20
2019-05-30T17:59:48.828Z,20.20
2019-05-30T18:02:20.316Z,20.10
2019-05-30T18:04:50.831Z,20.10
2019-05-30T18:07:22.761Z,20.20
2019-05-30T18:09:55.211Z,20.20
2019-05-30T18:12:25.654Z,20.00
2019-05-30T18:14:56.111Z,19.80
2019-05-30T18:17:27.216Z,19.80
2019-05-30T18:19:58.601Z,19.80
2019-05-30T18:22:29.673Z,19.80
2019-05-30T18:25:00.692Z,19.90
2019-05-30T18:27:32.151Z,19.80
2019-05-30T18:30:02.946Z,19.70
2019-05-30T18:32:33.487Z,19.60
2019-05-30T18:35:03.948Z,19.30
2019-05-30T18:37:34.625Z,19.20
2019-05-30T18:40:05.894Z,19.00
2019-05-30T18:42:36.811Z,19.00
2019-05-30T18:45:08.267Z,18.90
2019-05-30T18:47:38.856Z,18.80
2019-05-30T18:50:09.927Z,18.70
2019-05-30T18:52:40.804Z,18.60
2019-05-30T18:55:11.877Z,18.60
2019-05-30T18:57:42.389Z,18.60
2019-05-30T19:00:15.749Z,18.60
2019-05-30T19:02:45.581Z,18.40
2019-05-30T19:05:16.160Z,18.30
2019-05-30T19:07:47.394Z,18.20
2019-05-30T19:10:18.074Z,18.10
2019-05-30T19:12:49.223Z,18.10
2019-05-30T19:15:20.648Z,18.10
2019-05-30T19:17:51.445Z,18.00
2019-05-30T19:20:24.022Z,18.00
2019-05-30T19:22:55.670Z,17.90
2019-05-30T19:25:27.212Z,17.90
2019-05-30T19:27:57.832Z,17.80
2019-05-30T19:30:28.592Z,17.70
2019-05-30T19:32:59.214Z,17.50
2019-05-30T19:35:31.053Z,17.50
2019-05-30T19:38:09.058Z,17.40
2019-05-30T19:40:40.791Z,17.30
2019-05-30T19:43:11.602Z,17.30
2019-05-30T19:45:42.407Z,17.20
2019-05-30T19:48:12.976Z,17.10
2019-05-30T19:50:43.818Z,16.90
2019-05-30T19:53:15.753Z,16.80
2019-05-30T19:55:47.244Z,16.70
2019-05-30T19:58:17.758Z,16.60
2019-05-30T20:00:57.791Z,16.50
2019-05-30T20:03:35.796Z,16.50
2019-05-30T20:05:55.865Z,16.50
2019-05-30T20:08:26.570Z,16.50
2019-05-30T20:10:57.335Z,16.50
2019-05-30T20:13:27.931Z,16.50
2019-05-30T20:15:58.563Z,16.50
2019-05-30T20:18:31.472Z,16.50
2019-05-30T20:21:02.738Z,16.40
2019-05-30T20:23:47.344Z,16.40
2019-05-30T20:26:05.752Z,16.40
2019-05-30T20:28:36.767Z,16.30
2019-05-30T20:31:07.496Z,16.10
2019-05-30T20:33:44.441Z,16.10
2019-05-30T20:36:15.009Z,16.00
2019-05-30T20:38:45.500Z,16.00
2019-05-30T20:41:16.296Z,15.90
2019-05-30T20:43:47.395Z,15.90
2019-05-30T20:46:23.430Z,15.90
2019-05-30T20:48:53.102Z,15.80
2019-05-30T20:51:23.712Z,15.80
2019-05-30T20:53:54.890Z,15.70
2019-05-30T20:56:25.721Z,15.60
2019-05-30T20:58:56.169Z,15.60
2019-05-30T21:01:26.616Z,15.60
2019-05-30T21:03:58.646Z,15.60
2019-05-30T21:06:29.960Z,15.50
2019-05-30T21:09:01.326Z,15.50
2019-05-30T21:11:36.052Z,15.40
2019-05-30T21:14:07.042Z,15.30
2019-05-30T21:16:40.062Z,15.30
2019-05-30T21:19:12.130Z,15.20
2019-05-30T21:21:42.612Z,15.20
2019-05-30T21:24:13.243Z,15.20
2019-05-30T21:26:44.641Z,15.20
2019-05-30T21:29:15.616Z,15.20
2019-05-30T21:31:47.463Z,15.20
2019-05-30T21:34:18.286Z,15.10
2019-05-30T21:36:48.726Z,15.00
2019-05-30T21:39:19.280Z,14.90
2019-05-30T21:41:49.705Z,14.90
2019-05-30T21:44:20.237Z,14.90
2019-05-30T21:46:50.664Z,14.90
2019-05-30T21:49:21.152Z,14.80
2019-05-30T21:51:51.626Z,14.70
2019-05-30T21:54:22.057Z,14.70
2019-05-30T21:56:52.513Z,14.50
2019-05-30T21:59:23.067Z,14.50
2019-05-30T22:01:57.114Z,14.50
2019-05-30T22:04:25.942Z,14.50
2019-05-30T22:06:57.251Z,14.40
2019-05-30T22:09:28.081Z,14.40
2019-05-30T22:11:58.947Z,14.40
2019-05-30T22:14:29.655Z,14.40
2019-05-30T22:17:00.225Z,14.20
2019-05-30T22:19:31.001Z,14.10
2019-05-30T22:22:02.079Z,14.10
2019-05-30T22:24:32.820Z,14.00
2019-05-30T22:27:03.681Z,14.00
2019-05-30T22:29:34.474Z,14.00
2019-05-30T22:32:05.330Z,14.10
2019-05-30T22:34:35.888Z,14.10
2019-05-30T22:37:06.418Z,14.00
2019-05-30T22:39:36.923Z,14.00
2019-05-30T22:42:07.342Z,14.00
2019-05-30T22:44:37.774Z,13.90
2019-05-30T22:47:08.402Z,13.90
2019-05-30T22:49:39.416Z,13.90
2019-05-30T22:52:09.873Z,13.80
2019-05-30T22:54:40.462Z,13.80
2019-05-30T22:57:10.809Z,13.80
2019-05-30T22:59:41.251Z,13.80
2019-05-30T23:02:13.166Z,13.70
2019-05-30T23:04:43.644Z,13.60
2019-05-30T23:07:14.273Z,13.60
2019-05-30T23:09:45.559Z,13.60
2019-05-30T23:12:16.470Z,13.50
2019-05-30T23:14:47.940Z,13.50
2019-05-30T23:17:18.643Z,13.50
2019-05-30T23:19:51.705Z,13.40
2019-05-30T23:22:23.077Z,13.40
2019-05-30T23:24:55.446Z,13.30
2019-05-30T23:27:26.351Z,13.30
2019-05-30T23:29:58.004Z,13.20
2019-05-30T23:32:28.626Z,13.20
2019-05-30T23:34:59.375Z,13.10
2019-05-30T23:37:30.083Z,13.10
2019-05-30T23:40:00.725Z,13.00
2019-05-30T23:42:31.244Z,13.00
2019-05-30T23:45:01.994Z,13.10
2019-05-30T23:47:32.806Z,13.00
2019-05-30T23:50:03.835Z,13.00
2019-05-30T23:52:34.445Z,13.00
2019-05-30T23:55:05.750Z,13.00
2019-05-30T23:57:37.467Z,13.00
